createdAt,value
2022-09-26T00:01:17.142Z,953.66
2022-09-26T00:06:48.576Z,953.64
2022-09-26T00:12:20.126Z,953.64
2022-09-26T00:17:51.700Z,953.66
2022-09-26T00:23:23.027Z,953.66
2022-09-26T00:28:54.299Z,953.60
2022-09-26T00:34:25.653Z,953.59
2022-09-26T00:39:56.806Z,953.57
2022-09-26T00:45:28.194Z,953.53
2022-09-26T00:50:59.540Z,953.49
2022-09-26T00:56:31.323Z,953.43
2022-09-26T01:02:03.144Z,953.37
2022-09-26T01:07:34.505Z,953.33
2022-09-26T01:13:06.121Z,953.29
2022-09-26T01:18:37.821Z,953.25
2022-09-26T01:24:09.130Z,953.23
2022-09-26T01:29:40.915Z,953.23
2022-09-26T01:35:12.112Z,953.21
2022-09-26T01:40:43.506Z,953.17
2022-09-26T01:46:15.050Z,953.15
2022-09-26T01:51:46.606Z,953.13
2022-09-26T01:57:18.403Z,953.13
2022-09-26T02:02:50.568Z,953.10
2022-09-26T02:08:22.018Z,953.06
2022-09-26T02:13:53.732Z,953.06
2022-09-26T02:19:25.479Z,953.04
2022-09-26T02:24:57.224Z,953.00
2022-09-26T02:30:29.022Z,953.00
2022-09-26T02:36:00.697Z,952.94
2022-09-26T02:41:32.157Z,952.90
2022-09-26T02:47:03.863Z,952.90
2022-09-26T02:52:35.212Z,952.90
2022-09-26T02:58:07.571Z,952.90
2022-09-26T03:03:39.506Z,952.88
2022-09-26T03:09:11.300Z,952.86
2022-09-26T03:14:42.746Z,952.88
2022-09-26T03:20:14.122Z,952.88
2022-09-26T03:25:45.991Z,952.86
2022-09-26T03:31:17.756Z,952.82
2022-09-26T03:42:18.511Z,952.76
2022-09-26T03:47:50.360Z,952.70
2022-09-26T03:53:22.076Z,952.66
2022-09-26T03:58:53.842Z,952.65
2022-09-26T04:04:25.131Z,952.59
2022-09-26T04:09:56.631Z,952.53
2022-09-26T04:15:28.171Z,952.47
2022-09-26T04:20:59.920Z,952.43
2022-09-26T04:26:31.287Z,952.37
2022-09-26T04:32:03.126Z,952.29
2022-09-26T04:37:35.021Z,952.31
2022-09-26T04:43:06.769Z,952.31
2022-09-26T04:48:38.357Z,952.27
2022-09-26T04:54:09.930Z,952.25
2022-09-26T04:59:41.448Z,952.23
2022-09-26T05:05:12.735Z,952.21
2022-09-26T05:10:44.702Z,952.21
2022-09-26T05:16:16.141Z,952.19
2022-09-26T05:21:47.518Z,952.19
2022-09-26T05:27:19.271Z,952.19
2022-09-26T05:32:51.088Z,952.21
2022-09-26T05:38:23.044Z,952.19
2022-09-26T05:43:54.856Z,952.19
2022-09-26T05:49:26.641Z,952.21
2022-09-26T05:54:58.371Z,952.25
2022-09-26T06:00:30.309Z,952.25
2022-09-26T06:11:31.634Z,952.29
2022-09-26T06:17:03.537Z,952.31
2022-09-26T06:22:35.536Z,952.27
2022-09-26T06:28:07.424Z,952.27
2022-09-26T06:33:38.964Z,952.27
2022-09-26T06:39:10.793Z,952.31
2022-09-26T06:44:42.508Z,952.31
2022-09-26T06:50:14.088Z,952.27
2022-09-26T06:55:45.460Z,952.27
2022-09-26T07:01:17.643Z,952.23
2022-09-26T07:06:49.320Z,952.23
2022-09-26T07:12:21.040Z,952.23
2022-09-26T07:17:52.871Z,952.19
2022-09-26T07:23:24.697Z,952.15
2022-09-26T07:28:56.490Z,952.13
2022-09-26T07:34:28.223Z,952.10
2022-09-26T07:40:01.738Z,952.10
2022-09-26T07:45:32.014Z,952.10
2022-09-26T07:51:08.993Z,952.10
2022-09-26T07:56:35.171Z,952.10
2022-09-26T08:02:07.252Z,952.08
2022-09-26T08:07:38.988Z,952.04
2022-09-26T08:13:10.608Z,952.02
2022-09-26T08:24:11.682Z,952.04
2022-09-26T08:29:43.468Z,951.98
2022-09-26T08:35:15.175Z,951.96
2022-09-26T08:40:46.790Z,951.96
2022-09-26T08:46:18.041Z,951.96
2022-09-26T08:51:51.464Z,951.94
2022-09-26T08:57:23.283Z,951.84
2022-09-26T09:02:54.975Z,951.76
2022-09-26T09:08:26.258Z,951.66
2022-09-26T09:10:38.657Z,951.53
2022-09-26T09:16:10.485Z,951.51
2022-09-26T09:21:42.178Z,951.51
2022-09-26T09:32:44.764Z,951.45
2022-09-26T09:38:16.047Z,951.45
2022-09-26T09:43:47.345Z,951.33
2022-09-26T09:49:18.762Z,951.27
2022-09-26T09:54:50.123Z,951.21
2022-09-26T10:00:21.294Z,951.19
2022-09-26T10:05:52.622Z,951.17
2022-09-26T10:11:24.130Z,951.15
2022-09-26T10:16:56.977Z,951.15
2022-09-26T10:22:28.635Z,951.10
2022-09-26T10:27:59.846Z,951.08
2022-09-26T10:33:31.384Z,951.06
2022-09-26T10:39:03.091Z,951.08
2022-09-26T10:44:34.755Z,951.13
2022-09-26T10:50:05.895Z,951.17
2022-09-26T10:55:37.261Z,951.15
2022-09-26T11:01:08.713Z,951.10
2022-09-26T11:06:40.026Z,951.04
2022-09-26T11:12:11.291Z,950.96
2022-09-26T11:17:42.737Z,950.94
2022-09-26T11:23:14.603Z,950.86
2022-09-26T11:28:46.541Z,950.80
2022-09-26T11:34:17.962Z,950.74
2022-09-26T11:39:49.377Z,950.70
2022-09-26T11:45:20.704Z,950.66
2022-09-26T11:50:52.001Z,950.57
2022-09-26T11:56:23.273Z,950.49
2022-09-26T12:01:54.722Z,950.41
2022-09-26T12:07:26.014Z,950.33
2022-09-26T12:12:57.226Z,950.21
2022-09-26T12:18:28.612Z,950.16
2022-09-26T12:35:00.839Z,949.94
2022-09-26T12:40:32.397Z,949.88
2022-09-26T12:46:05.978Z,949.80
2022-09-26T12:51:37.866Z,949.74
2022-09-26T12:57:09.260Z,949.68
2022-09-26T13:02:40.748Z,949.61
2022-09-26T13:08:12.068Z,949.57
2022-09-26T13:13:43.847Z,949.51
2022-09-26T13:19:15.243Z,949.43
2022-09-26T13:24:46.456Z,949.33
2022-09-26T13:30:17.622Z,949.25
2022-09-26T13:35:49.080Z,949.15
2022-09-26T13:41:20.270Z,949.02
2022-09-26T13:43:43.567Z,948.70
2022-09-26T13:49:15.085Z,948.76
2022-09-26T13:54:46.252Z,948.74
2022-09-26T14:00:17.764Z,948.70
2022-09-26T14:05:49.419Z,948.68
2022-09-26T14:11:20.684Z,948.62
2022-09-26T14:16:52.429Z,948.59
2022-09-26T14:22:24.063Z,948.55
2022-09-26T14:27:58.154Z,948.45
2022-09-26T14:33:29.477Z,948.35
2022-09-26T14:39:01.148Z,948.25
2022-09-26T14:44:36.923Z,948.19
2022-09-26T14:50:04.935Z,948.14
2022-09-26T14:55:36.346Z,948.08
2022-09-26T15:01:07.995Z,948.00
2022-09-26T15:06:39.458Z,947.98
2022-09-26T15:12:11.310Z,947.90
2022-09-26T15:17:43.267Z,947.84
2022-09-26T15:23:14.655Z,947.82
2022-09-26T15:28:46.857Z,947.76
2022-09-26T15:34:18.353Z,947.78
2022-09-26T15:39:49.590Z,947.78
2022-09-26T15:45:20.995Z,947.78
2022-09-26T15:50:52.663Z,947.78
2022-09-26T15:56:24.053Z,947.80
2022-09-26T16:01:55.709Z,947.76
2022-09-26T16:07:27.001Z,947.76
2022-09-26T16:12:58.425Z,947.70
2022-09-26T16:18:29.754Z,947.72
2022-09-26T16:24:01.265Z,947.72
2022-09-26T16:29:32.607Z,947.70
2022-09-26T16:35:04.127Z,947.70
2022-09-26T16:40:35.649Z,947.72
2022-09-26T16:46:07.231Z,947.68
2022-09-26T16:51:39.786Z,947.65
2022-09-26T16:57:10.308Z,947.65
2022-09-26T17:02:42.052Z,947.67
2022-09-26T17:08:13.493Z,947.65
2022-09-26T17:13:45.123Z,947.65
2022-09-26T17:19:16.476Z,947.65
2022-09-26T17:24:48.270Z,947.67
2022-09-26T17:30:19.373Z,947.68
2022-09-26T17:35:50.721Z,947.70
2022-09-26T17:41:22.295Z,947.74
2022-09-26T17:52:25.450Z,947.76
2022-09-26T17:57:57.227Z,947.78
2022-09-26T18:03:29.006Z,947.78
2022-09-26T18:09:00.677Z,947.82
2022-09-26T18:14:37.139Z,947.76
2022-09-26T18:20:08.691Z,947.74
2022-09-26T18:25:40.760Z,947.70
2022-09-26T18:31:12.133Z,947.67
2022-09-26T18:42:21.393Z,947.65
2022-09-26T18:53:24.666Z,947.63
2022-09-26T18:58:56.155Z,947.59
2022-09-26T19:04:27.634Z,947.59
2022-09-26T19:15:30.637Z,947.61
2022-09-26T19:21:02.285Z,947.63
2022-09-26T19:26:34.075Z,947.61
2022-09-26T19:32:05.328Z,947.55
2022-09-26T19:37:36.818Z,947.49
2022-09-26T19:43:08.598Z,947.43
2022-09-26T19:48:40.318Z,947.31
2022-09-26T19:54:13.841Z,947.19
2022-09-26T19:59:45.450Z,947.10
2022-09-26T20:05:17.177Z,946.98
2022-09-26T20:10:48.940Z,946.86
2022-09-26T20:16:20.911Z,946.78
2022-09-26T20:21:52.670Z,946.70
2022-09-26T20:27:24.705Z,946.65
2022-09-26T20:32:56.400Z,946.57
2022-09-26T20:38:27.702Z,946.57
2022-09-26T20:43:59.293Z,946.53
2022-09-26T20:49:31.197Z,946.45
2022-09-26T20:55:04.364Z,946.37
2022-09-26T21:00:36.135Z,946.33
2022-09-26T21:06:07.895Z,946.27
2022-09-26T21:11:39.850Z,946.15
2022-09-26T21:17:11.873Z,946.12
2022-09-26T21:19:36.031Z,945.96
2022-09-26T21:25:07.865Z,945.94
2022-09-26T21:30:39.922Z,945.92
2022-09-26T21:41:40.945Z,945.78
2022-09-26T21:47:14.384Z,945.72
2022-09-26T21:52:46.162Z,945.65
2022-09-26T21:58:18.039Z,945.55
2022-09-26T22:09:21.787Z,945.35
2022-09-26T22:14:53.511Z,945.27
2022-09-26T22:20:25.323Z,945.18
2022-09-26T22:31:30.310Z,944.98
2022-09-26T22:42:33.892Z,944.76
2022-09-26T22:53:39.204Z,944.59
2022-09-26T22:59:11.068Z,944.53
2022-09-26T23:04:42.986Z,944.43
2022-09-26T23:10:14.639Z,944.41
2022-09-26T23:15:47.047Z,944.35
2022-09-26T23:21:18.877Z,944.33
2022-09-26T23:26:50.485Z,944.27
2022-09-26T23:32:22.678Z,944.21
2022-09-26T23:37:54.569Z,944.17
2022-09-26T23:48:59.157Z,944.10
2022-09-26T23:54:30.895Z,944.00
